Time,TemperatureF,DewpointF,PressureIn,WindDirection,WindDirectionDegrees,WindSpeedMPH,WindSpeedGustMPH,Humidity,HourlyPrecipIn,Conditions,Clouds,dailyrainin,SoftwareType,DateUTC
2013-02-15 00:00:00,33.4,30.8,30.06,WSW,248,4.0,4.0,90,0.00,,,0.14,Wunderground v.1.15,2013-02-15 05:00:00,
2013-02-15 00:05:00,33.0,30.4,30.06,WSW,246,3.0,4.0,90,0.00,,,0.00,Wunderground v.1.15,2013-02-15 05:05:00,
2013-02-15 00:10:00,33.2,30.9,30.06,WSW,246,4.0,4.0,91,0.00,,,0.00,Wunderground v.1.15,2013-02-15 05:10:00,
2013-02-15 00:15:00,33.3,31.0,30.06,WSW,246,5.0,5.0,91,0.00,,,0.00,Wunderground v.1.15,2013-02-15 05:15:00,
2013-02-15 00:20:00,33.4,31.1,30.05,WSW,246,5.0,5.0,91,0.00,,,0.00,Wunderground v.1.15,2013-02-15 05:20:00,
2013-02-15 00:25:00,33.6,31.3,30.05,WSW,246,5.0,5.0,91,0.00,,,0.00,Wunderground v.1.15,2013-02-15 05:25:00,
2013-02-15 00:30:00,33.6,31.3,30.06,WSW,244,5.0,5.0,91,0.00,,,0.00,Wunderground v.1.15,2013-02-15 05:30:00,
2013-02-15 00:35:00,33.6,31.3,30.05,WSW,239,4.0,5.0,91,0.00,,,0.00,Wunderground v.1.15,2013-02-15 05:35:00,
2013-02-15 00:40:00,33.9,31.6,30.05,WSW,239,4.0,5.0,91,0.00,,,0.00,Wunderground v.1.15,2013-02-15 05:40:00,
2013-02-15 00:45:00,33.8,31.5,30.05,WSW,239,4.0,5.0,91,0.00,,,0.00,Wunderground v.1.15,2013-02-15 05:45:00,
2013-02-15 00:50:00,33.8,31.7,30.05,WSW,239,4.0,4.0,92,0.00,,,0.00,Wunderground v.1.15,2013-02-15 05:50:00,
2013-02-15 00:56:00,34.0,31.9,30.05,WSW,254,4.0,5.0,92,0.00,,,0.00,Wunderground v.1.15,2013-02-15 05:56:00,
2013-02-15 01:01:00,33.6,31.3,30.06,West,259,4.0,4.0,91,0.00,,,0.00,Wunderground v.1.15,2013-02-15 06:01:00,
2013-02-15 01:06:00,33.3,31.0,30.06,WSW,248,4.0,5.0,91,0.00,,,0.00,Wunderground v.1.15,2013-02-15 06:06:00,
2013-02-15 01:11:00,33.5,31.4,30.06,WSW,252,4.0,5.0,92,0.00,,,0.00,Wunderground v.1.15,2013-02-15 06:11:00,
2013-02-15 01:16:00,33.3,31.0,30.06,WSW,244,5.0,5.0,91,0.00,,,0.00,Wunderground v.1.15,2013-02-15 06:16:00,
2013-02-15 01:21:00,33.5,31.4,30.06,WSW,244,4.0,4.0,92,0.00,,,0.00,Wunderground v.1.15,2013-02-15 06:21:00,
2013-02-15 01:26:00,33.5,31.4,30.06,WSW,244,5.0,5.0,92,0.00,,,0.00,Wunderground v.1.15,2013-02-15 06:26:00,
2013-02-15 01:31:00,33.8,31.7,30.06,WSW,246,5.0,5.0,92,0.00,,,0.00,Wunderground v.1.15,2013-02-15 06:31:00,
2013-02-15 01:36:00,33.7,31.4,30.06,WSW,246,3.0,5.0,91,0.00,,,0.00,Wunderground v.1.15,2013-02-15 06:36:00,
2013-02-15 01:41:00,33.7,31.4,30.06,WSW,246,4.0,4.0,91,0.00,,,0.00,Wunderground v.1.15,2013-02-15 06:41:00,
2013-02-15 01:46:00,33.8,31.5,30.06,WSW,246,4.0,5.0,91,0.00,,,0.00,Wunderground v.1.15,2013-02-15 06:46:00,
2013-02-15 01:51:00,34.0,31.9,30.07,WSW,246,3.0,4.0,92,0.00,,,0.00,Wunderground v.1.15,2013-02-15 06:51:00,
2013-02-15 01:56:00,34.0,31.9,30.07,WSW,246,3.0,4.0,92,0.00,,,0.00,Wunderground v.1.15,2013-02-15 06:56:00,
2013-02-15 02:01:00,33.9,31.8,30.07,SW,233,4.0,5.0,92,0.00,,,0.00,Wunderground v.1.15,2013-02-15 07:01:00,
2013-02-15 02:06:00,34.0,31.9,30.06,SW,229,5.0,5.0,92,0.00,,,0.00,Wunderground v.1.15,2013-02-15 07:06:00,
2013-02-15 02:11:00,33.8,31.5,30.07,SW,229,4.0,5.0,91,0.00,,,0.00,Wunderground v.1.15,2013-02-15 07:11:00,
2013-02-15 02:16:00,33.6,31.5,30.06,SW,229,4.0,5.0,92,0.00,,,0.00,Wunderground v.1.15,2013-02-15 07:16:00,
2013-02-15 02:21:00,33.4,31.3,30.06,SW,229,3.0,4.0,92,0.00,,,0.00,Wunderground v.1.15,2013-02-15 07:21:00,
2013-02-15 02:26:00,33.3,31.2,30.06,SW,229,4.0,5.0,92,0.00,,,0.00,Wunderground v.1.15,2013-02-15 07:26:00,
2013-02-15 02:31:00,33.3,31.2,30.06,SW,229,3.0,4.0,92,0.00,,,0.00,Wunderground v.1.15,2013-02-15 07:31:00,
2013-02-15 02:36:00,33.5,31.7,30.06,SW,229,4.0,4.0,93,0.00,,,0.00,Wunderground v.1.15,2013-02-15 07:36:00,
2013-02-15 02:41:00,33.5,31.7,30.06,SW,229,4.0,4.0,93,0.00,,,0.00,Wunderground v.1.15,2013-02-15 07:41:00,
2013-02-15 02:46:00,33.2,31.1,30.06,SW,229,2.0,4.0,92,0.00,,,0.00,Wunderground v.1.15,2013-02-15 07:46:00,
2013-02-15 02:51:00,33.1,31.0,30.05,SW,229,3.0,3.0,92,0.00,,,0.00,Wunderground v.1.15,2013-02-15 07:51:00,
2013-02-15 02:56:00,33.2,31.4,30.05,SW,229,2.0,4.0,93,0.00,,,0.00,Wunderground v.1.15,2013-02-15 07:56:00,
2013-02-15 03:01:00,33.2,31.4,30.05,SW,229,4.0,4.0,93,0.00,,,0.00,Wunderground v.1.15,2013-02-15 08:01:00,
2013-02-15 03:06:00,33.2,31.4,30.06,SW,236,4.0,4.0,93,0.00,,,0.00,Wunderground v.1.15,2013-02-15 08:06:00,
2013-02-15 03:11:00,33.6,31.8,30.06,WSW,238,3.0,4.0,93,0.00,,,0.00,Wunderground v.1.15,2013-02-15 08:11:00,
2013-02-15 03:16:00,33.8,32.0,30.06,WSW,238,3.0,4.0,93,0.00,,,0.00,Wunderground v.1.15,2013-02-15 08:16:00,
2013-02-15 03:21:00,33.7,31.9,30.05,WSW,238,3.0,3.0,93,0.00,,,0.00,Wunderground v.1.15,2013-02-15 08:21:00,
2013-02-15 03:26:00,33.5,31.7,30.05,WSW,238,4.0,4.0,93,0.00,,,0.00,Wunderground v.1.15,2013-02-15 08:26:00,
2013-02-15 03:31:00,33.5,31.7,30.05,WSW,238,2.0,3.0,93,0.00,,,0.00,Wunderground v.1.15,2013-02-15 08:31:00,
2013-02-15 03:36:00,33.5,31.7,30.05,WSW,238,2.0,4.0,93,0.00,,,0.00,Wunderground v.1.15,2013-02-15 08:36:00,
2013-02-15 03:41:00,33.4,31.6,30.05,WSW,238,2.0,2.0,93,0.00,,,0.00,Wunderground v.1.15,2013-02-15 08:41:00,
2013-02-15 03:46:00,33.4,31.6,30.05,WSW,238,2.0,3.0,93,0.00,,,0.00,Wunderground v.1.15,2013-02-15 08:46:00,
2013-02-15 03:51:00,33.4,31.6,30.05,WSW,238,2.0,3.0,93,0.00,,,0.00,Wunderground v.1.15,2013-02-15 08:51:00,
2013-02-15 03:56:00,33.3,31.5,30.05,WSW,238,3.0,3.0,93,0.00,,,0.00,Wunderground v.1.15,2013-02-15 08:56:00,
2013-02-15 04:01:00,33.3,31.5,30.05,WSW,237,3.0,4.0,93,0.00,,,0.00,Wunderground v.1.15,2013-02-15 09:01:00,
2013-02-15 04:06:00,33.4,31.6,30.05,WSW,237,3.0,4.0,93,0.00,,,0.00,Wunderground v.1.15,2013-02-15 09:06:00,
2013-02-15 04:11:00,33.2,31.4,30.05,SW,234,3.0,3.0,93,0.00,,,0.00,Wunderground v.1.15,2013-02-15 09:11:00,
2013-02-15 04:16:00,33.3,31.5,30.05,SW,231,2.0,4.0,93,0.00,,,0.00,Wunderground v.1.15,2013-02-15 09:16:00,
2013-02-15 04:21:00,33.3,31.8,30.05,SW,231,2.0,3.0,94,0.00,,,0.00,Wunderground v.1.15,2013-02-15 09:21:00,
2013-02-15 04:26:00,33.3,31.8,30.06,SW,231,1.0,3.0,94,0.00,,,0.00,Wunderground v.1.15,2013-02-15 09:26:00,
2013-02-15 04:31:00,33.4,31.9,30.06,SW,231,2.0,3.0,94,0.00,,,0.00,Wunderground v.1.15,2013-02-15 09:31:00,
2013-02-15 04:36:00,33.4,31.9,30.06,SW,231,0.0,3.0,94,0.00,,,0.00,Wunderground v.1.15,2013-02-15 09:36:00,
2013-02-15 04:41:00,33.2,31.4,30.06,SW,231,0.0,1.0,93,0.00,,,0.00,Wunderground v.1.15,2013-02-15 09:41:00,
2013-02-15 04:46:00,32.8,31.0,30.06,SW,231,0.0,1.0,93,0.00,,,0.00,Wunderground v.1.15,2013-02-15 09:46:00,
2013-02-15 04:51:00,32.9,31.1,30.06,SW,231,0.0,0.0,93,0.00,,,0.00,Wunderground v.1.15,2013-02-15 09:51:00,
2013-02-15 04:56:00,32.9,31.1,30.06,SW,231,1.0,1.0,93,0.00,,,0.00,Wunderground v.1.15,2013-02-15 09:56:00,
2013-02-15 05:01:00,32.8,31.0,30.06,SW,231,0.0,1.0,93,0.00,,,0.00,Wunderground v.1.15,2013-02-15 10:01:00,
2013-02-15 05:06:00,32.6,30.8,30.06,SW,231,0.0,1.0,93,0.00,,,0.00,Wunderground v.1.15,2013-02-15 10:06:00,
2013-02-15 05:11:00,32.4,30.6,30.07,SW,231,0.0,0.0,93,0.00,,,0.00,Wunderground v.1.15,2013-02-15 10:11:00,
2013-02-15 05:16:00,32.5,31.0,30.06,SW,231,0.0,1.0,94,0.00,,,0.00,Wunderground v.1.15,2013-02-15 10:16:00,
2013-02-15 05:21:00,32.5,31.0,30.06,SW,231,2.0,2.0,94,0.00,,,0.00,Wunderground v.1.15,2013-02-15 10:21:00,
2013-02-15 05:26:00,32.5,31.0,30.07,SW,228,2.0,3.0,94,0.00,,,0.00,Wunderground v.1.15,2013-02-15 10:26:00,
2013-02-15 05:31:00,32.3,30.8,30.07,SW,228,3.0,3.0,94,0.00,,,0.00,Wunderground v.1.15,2013-02-15 10:31:00,
2013-02-15 05:36:00,32.3,30.8,30.07,SW,228,1.0,3.0,94,0.00,,,0.00,Wunderground v.1.15,2013-02-15 10:36:00,
2013-02-15 05:42:00,32.2,30.7,30.07,SW,228,1.0,2.0,94,0.00,,,0.00,Wunderground v.1.15,2013-02-15 10:42:00,
2013-02-15 05:47:00,31.9,30.1,30.06,SSW,202,3.0,4.0,93,0.00,,,0.00,Wunderground v.1.15,2013-02-15 10:47:00,
2013-02-15 05:52:00,31.8,30.3,30.06,South,179,3.0,4.0,94,0.00,,,0.00,Wunderground v.1.15,2013-02-15 10:52:00,
2013-02-15 05:57:00,32.6,31.1,30.07,SSW,194,3.0,4.0,94,0.00,,,0.00,Wunderground v.1.15,2013-02-15 10:57:00,
2013-02-15 06:02:00,33.2,31.9,30.07,SSW,194,4.0,4.0,95,0.00,,,0.00,Wunderground v.1.15,2013-02-15 11:02:00,
2013-02-15 06:07:00,33.4,32.1,30.07,SSW,194,3.0,5.0,95,0.00,,,0.00,Wunderground v.1.15,2013-02-15 11:07:00,
2013-02-15 06:12:00,33.3,31.8,30.07,SSW,194,2.0,4.0,94,0.00,,,0.00,Wunderground v.1.15,2013-02-15 11:12:00,
2013-02-15 06:17:00,33.4,31.9,30.07,SSW,201,3.0,4.0,94,0.00,,,0.00,Wunderground v.1.15,2013-02-15 11:17:00,
2013-02-15 06:22:00,33.4,31.9,30.06,SSW,201,4.0,4.0,94,0.00,,,0.00,Wunderground v.1.15,2013-02-15 11:22:00,
2013-02-15 06:27:00,33.5,32.0,30.06,SSW,201,4.0,4.0,94,0.00,,,0.00,Wunderground v.1.15,2013-02-15 11:27:00,
2013-02-15 06:32:00,33.5,32.0,30.06,SSW,201,4.0,5.0,94,0.00,,,0.00,Wunderground v.1.15,2013-02-15 11:32:00,
2013-02-15 06:37:00,33.8,32.3,30.06,SSW,201,6.0,7.0,94,0.00,,,0.00,Wunderground v.1.15,2013-02-15 11:37:00,
2013-02-15 06:42:00,34.1,32.8,30.06,SSW,205,6.0,6.0,95,0.00,,,0.00,Wunderground v.1.15,2013-02-15 11:42:00,
2013-02-15 06:47:00,34.3,32.8,30.06,SSW,207,6.0,7.0,94,0.00,,,0.00,Wunderground v.1.15,2013-02-15 11:47:00,
2013-02-15 06:52:00,34.2,32.7,30.06,SSW,209,7.0,7.0,94,0.00,,,0.00,Wunderground v.1.15,2013-02-15 11:52:00,
2013-02-15 06:57:00,34.8,33.5,30.06,SSW,213,7.0,8.0,95,0.00,,,0.00,Wunderground v.1.15,2013-02-15 11:57:00,
2013-02-15 07:02:00,35.3,34.0,30.06,SW,215,6.0,8.0,95,0.00,,,0.00,Wunderground v.1.15,2013-02-15 12:02:00,
2013-02-15 07:07:00,35.3,33.7,30.06,SSW,204,6.0,8.0,94,0.00,,,0.00,Wunderground v.1.15,2013-02-15 12:07:00,
2013-02-15 07:12:00,35.3,33.7,30.06,SSW,208,6.0,6.0,94,0.00,,,0.00,Wunderground v.1.15,2013-02-15 12:12:00,
2013-02-15 07:17:00,35.3,33.7,30.05,SSW,205,7.0,7.0,94,0.00,,,0.00,Wunderground v.1.15,2013-02-15 12:17:00,
2013-02-15 07:22:00,35.4,33.8,30.06,SSW,192,7.0,8.0,94,0.00,,,0.00,Wunderground v.1.15,2013-02-15 12:22:00,
2013-02-15 07:27:00,35.5,33.9,30.06,South,189,6.0,8.0,94,0.00,,,0.00,Wunderground v.1.15,2013-02-15 12:27:00,
2013-02-15 07:32:00,35.5,33.9,30.06,SSW,200,6.0,7.0,94,0.00,,,0.00,Wunderground v.1.15,2013-02-15 12:32:00,
2013-02-15 07:37:00,35.8,34.2,30.06,SSW,200,5.0,7.0,94,0.00,,,0.00,Wunderground v.1.15,2013-02-15 12:37:00,
2013-02-15 07:42:00,35.9,34.3,30.06,South,191,5.0,7.0,94,0.00,,,0.00,Wunderground v.1.15,2013-02-15 12:42:00,
2013-02-15 07:47:00,36.1,34.5,30.06,South,188,4.0,7.0,94,0.00,,,0.00,Wunderground v.1.15,2013-02-15 12:47:00,
2013-02-15 07:52:00,36.3,34.7,30.07,South,184,3.0,4.0,94,0.00,,,0.00,Wunderground v.1.15,2013-02-15 12:52:00,
2013-02-15 07:57:00,36.5,34.9,30.07,South,184,3.0,5.0,94,0.00,,,0.00,Wunderground v.1.15,2013-02-15 12:57:00,
2013-02-15 08:02:00,36.6,34.8,30.07,SW,217,5.0,5.0,93,0.00,,,0.00,Wunderground v.1.15,2013-02-15 13:02:00,
2013-02-15 08:07:00,36.8,35.2,30.07,SW,215,5.0,6.0,94,0.00,,,0.00,Wunderground v.1.15,2013-02-15 13:07:00,
2013-02-15 08:12:00,36.6,34.8,30.07,SSW,207,5.0,6.0,93,0.00,,,0.00,Wunderground v.1.15,2013-02-15 13:12:00,
2013-02-15 08:17:00,36.6,34.8,30.07,SSW,201,6.0,7.0,93,0.00,,,0.00,Wunderground v.1.15,2013-02-15 13:17:00,
2013-02-15 08:22:00,36.6,34.8,30.07,SSW,212,7.0,8.0,93,0.00,,,0.00,Wunderground v.1.15,2013-02-15 13:22:00,
2013-02-15 08:27:00,37.3,35.7,30.08,SW,234,8.0,8.0,94,0.00,,,0.00,Wunderground v.1.15,2013-02-15 13:27:00,
2013-02-15 08:32:00,37.9,36.3,30.08,SW,219,5.0,7.0,94,0.00,,,0.00,Wunderground v.1.15,2013-02-15 13:32:00,
2013-02-15 08:37:00,37.6,35.8,30.08,SW,230,6.0,8.0,93,0.00,,,0.00,Wunderground v.1.15,2013-02-15 13:37:00,
2013-02-15 08:42:00,38.7,37.1,30.08,SW,234,8.0,9.0,94,0.00,,,0.00,Wunderground v.1.15,2013-02-15 13:42:00,
2013-02-15 08:47:00,39.4,37.8,30.08,WSW,255,11.0,15.0,94,0.00,,,0.00,Wunderground v.1.15,2013-02-15 13:47:00,
2013-02-15 08:52:00,39.8,37.7,30.08,WSW,242,9.0,10.0,92,0.00,,,0.00,Wunderground v.1.15,2013-02-15 13:52:00,
2013-02-15 08:57:00,40.3,38.2,30.08,West,267,10.0,13.0,92,0.00,,,0.00,Wunderground v.1.15,2013-02-15 13:57:00,
2013-02-15 09:02:00,40.7,38.0,30.08,WSW,252,9.0,11.0,90,0.00,,,0.00,Wunderground v.1.15,2013-02-15 14:02:00,
2013-02-15 09:07:00,41.1,38.1,30.08,West,271,12.0,15.0,89,0.00,,,0.00,Wunderground v.1.15,2013-02-15 14:07:00,
2013-02-15 09:12:00,41.3,38.0,30.08,West,267,14.0,18.0,88,0.00,,,0.00,Wunderground v.1.15,2013-02-15 14:12:00,
2013-02-15 09:17:00,41.5,37.6,30.08,West,271,15.0,18.0,86,0.00,,,0.00,Wunderground v.1.15,2013-02-15 14:17:00,
2013-02-15 09:22:00,41.6,37.4,30.08,West,261,12.0,23.0,85,0.00,,,0.00,Wunderground v.1.15,2013-02-15 14:22:00,
2013-02-15 09:27:00,41.4,37.5,30.08,West,269,14.0,23.0,86,0.00,,,0.00,Wunderground v.1.15,2013-02-15 14:27:00,
2013-02-15 09:32:00,41.3,37.4,30.09,WSW,252,12.0,14.0,86,0.00,,,0.00,Wunderground v.1.15,2013-02-15 14:32:00,
2013-02-15 09:37:00,41.3,37.4,30.08,WSW,253,9.0,14.0,86,0.00,,,0.00,Wunderground v.1.15,2013-02-15 14:37:00,
2013-02-15 09:42:00,41.6,37.4,30.08,West,266,15.0,19.0,85,0.00,,,0.00,Wunderground v.1.15,2013-02-15 14:42:00,
2013-02-15 09:47:00,41.8,37.0,30.08,WSW,246,10.0,19.0,83,0.00,,,0.00,Wunderground v.1.15,2013-02-15 14:47:00,
2013-02-15 09:52:00,42.0,37.5,30.09,WSW,246,12.0,14.0,84,0.00,,,0.00,Wunderground v.1.15,2013-02-15 14:52:00,
2013-02-15 09:57:00,42.2,37.7,30.08,West,275,10.0,15.0,84,0.00,,,0.00,Wunderground v.1.15,2013-02-15 14:57:00,
2013-02-15 10:02:00,42.8,38.0,30.08,West,263,12.0,16.0,83,0.00,,,0.00,Wunderground v.1.15,2013-02-15 15:02:00,
2013-02-15 10:07:00,43.0,38.2,30.09,WNW,294,10.0,20.0,83,0.00,,,0.00,Wunderground v.1.15,2013-02-15 15:07:00,
2013-02-15 10:12:00,43.3,38.5,30.08,West,260,17.0,18.0,83,0.00,,,0.00,Wunderground v.1.15,2013-02-15 15:12:00,
2013-02-15 10:17:00,43.5,38.4,30.08,West,261,16.0,23.0,82,0.00,,,0.00,Wunderground v.1.15,2013-02-15 15:17:00,
2013-02-15 10:22:00,43.4,38.3,30.08,WSW,254,12.0,15.0,82,0.00,,,0.00,Wunderground v.1.15,2013-02-15 15:22:00,
2013-02-15 10:27:00,43.3,38.2,30.08,WSW,248,12.0,17.0,82,0.00,,,0.00,Wunderground v.1.15,2013-02-15 15:27:00,
2013-02-15 10:32:00,43.4,38.3,30.08,West,261,16.0,20.0,82,0.00,,,0.00,Wunderground v.1.15,2013-02-15 15:32:00,
2013-02-15 10:37:00,43.4,38.3,30.08,WSW,250,14.0,21.0,82,0.00,,,0.00,Wunderground v.1.15,2013-02-15 15:37:00,
2013-02-15 10:42:00,43.3,38.2,30.08,West,262,14.0,19.0,82,0.00,,,0.00,Wunderground v.1.15,2013-02-15 15:42:00,
2013-02-15 10:47:00,43.3,38.5,30.08,WSW,252,13.0,19.0,83,0.00,,,0.00,Wunderground v.1.15,2013-02-15 15:47:00,
2013-02-15 10:52:00,43.3,38.5,30.08,WSW,257,13.0,18.0,83,0.00,,,0.00,Wunderground v.1.15,2013-02-15 15:52:00,
2013-02-15 10:57:00,43.3,38.5,30.08,West,260,15.0,18.0,83,0.00,,,0.00,Wunderground v.1.15,2013-02-15 15:57:00,
2013-02-15 11:02:00,43.4,38.6,30.08,WSW,253,12.0,16.0,83,0.00,,,0.00,Wunderground v.1.15,2013-02-15 16:02:00,
2013-02-15 11:07:00,43.3,38.5,30.08,WSW,248,14.0,18.0,83,0.00,,,0.00,Wunderground v.1.15,2013-02-15 16:07:00,
2013-02-15 11:12:00,43.0,38.8,30.08,WSW,247,14.0,19.0,85,0.00,,,0.00,Wunderground v.1.15,2013-02-15 16:12:00,
2013-02-15 11:17:00,43.0,38.5,30.07,West,259,16.0,19.0,84,0.00,,,0.00,Wunderground v.1.15,2013-02-15 16:17:00,
2013-02-15 11:22:00,42.9,38.4,30.07,SW,234,10.0,15.0,84,0.00,,,0.00,Wunderground v.1.15,2013-02-15 16:22:00,
2013-02-15 11:27:00,42.9,38.7,30.07,WSW,238,14.0,19.0,85,0.00,,,0.00,Wunderground v.1.15,2013-02-15 16:27:00,
2013-02-15 11:32:00,43.1,38.6,30.07,West,262,16.0,19.0,84,0.00,,,0.00,Wunderground v.1.15,2013-02-15 16:32:00,
2013-02-15 11:37:00,43.0,38.5,30.07,SW,236,15.0,19.0,84,0.00,,,0.00,Wunderground v.1.15,2013-02-15 16:37:00,
2013-02-15 11:42:00,42.8,38.3,30.06,SW,229,16.0,16.0,84,0.00,,,0.00,Wunderground v.1.15,2013-02-15 16:42:00,
2013-02-15 11:47:00,42.8,38.3,30.06,SW,232,14.0,18.0,84,0.00,,,0.00,Wunderground v.1.15,2013-02-15 16:47:00,
2013-02-15 11:53:00,42.5,38.0,30.06,WSW,242,14.0,16.0,84,0.00,,,0.00,Wunderground v.1.15,2013-02-15 16:53:00,
2013-02-15 11:58:00,42.8,38.6,30.06,SW,235,10.0,16.0,85,0.00,,,0.00,Wunderground v.1.15,2013-02-15 16:58:00,
2013-02-15 12:03:00,43.5,38.7,30.05,WSW,242,18.0,18.0,83,0.00,,,0.00,Wunderground v.1.15,2013-02-15 17:03:00,
2013-02-15 12:08:00,43.7,38.9,30.05,WSW,239,14.0,20.0,83,0.00,,,0.00,Wunderground v.1.15,2013-02-15 17:08:00,
2013-02-15 12:13:00,43.7,38.9,30.05,WSW,242,14.0,19.0,83,0.00,,,0.00,Wunderground v.1.15,2013-02-15 17:13:00,
2013-02-15 12:18:00,43.8,38.7,30.05,WSW,237,13.0,20.0,82,0.00,,,0.00,Wunderground v.1.15,2013-02-15 17:18:00,
2013-02-15 12:23:00,43.6,38.8,30.05,WSW,243,16.0,17.0,83,0.00,,,0.00,Wunderground v.1.15,2013-02-15 17:23:00,
2013-02-15 12:28:00,43.5,38.7,30.04,WSW,246,11.0,17.0,83,0.00,,,0.00,Wunderground v.1.15,2013-02-15 17:28:00,
2013-02-15 12:33:00,43.2,38.4,30.04,WSW,240,13.0,17.0,83,0.00,,,0.00,Wunderground v.1.15,2013-02-15 17:33:00,
2013-02-15 12:38:00,42.8,38.3,30.04,SW,234,13.0,17.0,84,0.00,,,0.00,Wunderground v.1.15,2013-02-15 17:38:00,
2013-02-15 12:43:00,42.8,38.3,30.04,SW,232,13.0,14.0,84,0.00,,,0.00,Wunderground v.1.15,2013-02-15 17:43:00,
2013-02-15 12:48:00,42.8,38.0,30.04,SW,234,11.0,15.0,83,0.00,,,0.00,Wunderground v.1.15,2013-02-15 17:48:00,
2013-02-15 12:53:00,42.8,38.3,30.03,SW,236,12.0,14.0,84,0.00,,,0.00,Wunderground v.1.15,2013-02-15 17:53:00,
2013-02-15 12:58:00,43.5,38.7,30.03,WSW,243,19.0,20.0,83,0.00,,,0.00,Wunderground v.1.15,2013-02-15 17:58:00,
2013-02-15 13:03:00,43.6,38.5,30.03,WSW,258,15.0,16.0,82,0.00,,,0.00,Wunderground v.1.15,2013-02-15 18:03:00,
2013-02-15 13:08:00,43.9,38.8,30.03,WSW,246,12.0,17.0,82,0.00,,,0.00,Wunderground v.1.15,2013-02-15 18:08:00,
2013-02-15 13:13:00,43.8,38.7,30.03,WSW,245,13.0,18.0,82,0.00,,,0.00,Wunderground v.1.15,2013-02-15 18:13:00,
2013-02-15 13:18:00,43.6,38.5,30.02,WSW,246,15.0,18.0,82,0.00,,,0.00,Wunderground v.1.15,2013-02-15 18:18:00,
2013-02-15 13:23:00,43.5,38.7,30.02,WSW,247,14.0,21.0,83,0.00,,,0.00,Wunderground v.1.15,2013-02-15 18:23:00,
2013-02-15 13:28:00,43.3,38.5,30.02,WSW,242,12.0,21.0,83,0.00,,,0.00,Wunderground v.1.15,2013-02-15 18:28:00,
2013-02-15 13:33:00,43.6,38.8,30.02,West,260,17.0,20.0,83,0.00,,,0.00,Wunderground v.1.15,2013-02-15 18:33:00,
2013-02-15 13:38:00,43.8,38.7,30.02,SW,232,14.0,20.0,82,0.00,,,0.00,Wunderground v.1.15,2013-02-15 18:38:00,
2013-02-15 13:43:00,43.7,38.6,30.02,SW,236,16.0,17.0,82,0.00,,,0.00,Wunderground v.1.15,2013-02-15 18:43:00,
2013-02-15 13:48:00,43.4,38.6,30.02,WSW,240,16.0,19.0,83,0.00,,,0.00,Wunderground v.1.15,2013-02-15 18:48:00,
2013-02-15 13:53:00,43.6,38.8,30.02,WSW,237,16.0,18.0,83,0.00,,,0.00,Wunderground v.1.15,2013-02-15 18:53:00,
2013-02-15 13:58:00,44.0,38.9,30.02,WSW,247,12.0,19.0,82,0.00,,,0.00,Wunderground v.1.15,2013-02-15 18:58:00,
2013-02-15 14:03:00,44.3,38.8,30.02,West,267,13.0,17.0,81,0.00,,,0.00,Wunderground v.1.15,2013-02-15 19:03:00,
2013-02-15 14:08:00,44.4,38.9,30.02,WSW,257,17.0,19.0,81,0.00,,,0.00,Wunderground v.1.15,2013-02-15 19:08:00,
2013-02-15 14:13:00,44.3,38.5,30.02,WSW,254,16.0,20.0,80,0.00,,,0.00,Wunderground v.1.15,2013-02-15 19:13:00,
2013-02-15 14:18:00,44.4,38.6,30.02,WSW,257,16.0,20.0,80,0.00,,,0.00,Wunderground v.1.15,2013-02-15 19:18:00,
2013-02-15 14:23:00,44.4,38.6,30.02,WSW,246,14.0,16.0,80,0.00,,,0.00,Wunderground v.1.15,2013-02-15 19:23:00,
2013-02-15 14:28:00,44.4,38.6,30.02,WSW,245,13.0,19.0,80,0.00,,,0.00,Wunderground v.1.15,2013-02-15 19:28:00,
2013-02-15 14:33:00,44.3,38.5,30.02,WSW,244,16.0,17.0,80,0.00,,,0.00,Wunderground v.1.15,2013-02-15 19:33:00,
2013-02-15 14:38:00,44.3,38.5,30.02,WSW,248,14.0,20.0,80,0.00,,,0.00,Wunderground v.1.15,2013-02-15 19:38:00,
2013-02-15 14:43:00,44.2,38.7,30.02,WSW,249,16.0,16.0,81,0.00,,,0.00,Wunderground v.1.15,2013-02-15 19:43:00,
2013-02-15 14:48:00,44.1,38.6,30.02,WSW,249,14.0,18.0,81,0.00,,,0.00,Wunderground v.1.15,2013-02-15 19:48:00,
2013-02-15 14:53:00,44.1,38.6,30.02,WSW,248,15.0,19.0,81,0.00,,,0.00,Wunderground v.1.15,2013-02-15 19:53:00,
2013-02-15 14:58:00,44.1,38.6,30.02,WSW,254,13.0,19.0,81,0.00,,,0.00,Wunderground v.1.15,2013-02-15 19:58:00,
2013-02-15 15:03:00,43.9,38.8,30.01,WSW,250,16.0,18.0,82,0.00,,,0.00,Wunderground v.1.15,2013-02-15 20:03:00,
2013-02-15 15:08:00,43.9,38.8,30.01,WSW,246,13.0,19.0,82,0.00,,,0.00,Wunderground v.1.15,2013-02-15 20:08:00,
2013-02-15 15:13:00,43.7,38.9,30.01,WSW,248,13.0,16.0,83,0.00,,,0.00,Wunderground v.1.15,2013-02-15 20:13:00,
2013-02-15 15:18:00,43.6,38.8,30.01,WSW,242,16.0,18.0,83,0.00,,,0.00,Wunderground v.1.15,2013-02-15 20:18:00,
2013-02-15 15:23:00,43.6,38.8,30.01,West,261,16.0,22.0,83,0.00,,,0.00,Wunderground v.1.15,2013-02-15 20:23:00,
2013-02-15 15:28:00,43.8,39.0,30.01,WSW,244,11.0,22.0,83,0.00,,,0.00,Wunderground v.1.15,2013-02-15 20:28:00,
2013-02-15 15:33:00,43.9,38.8,30.01,WSW,252,15.0,16.0,82,0.00,,,0.00,Wunderground v.1.15,2013-02-15 20:33:00,
2013-02-15 15:38:00,43.9,38.8,30.01,WSW,254,13.0,17.0,82,0.00,,,0.00,Wunderground v.1.15,2013-02-15 20:38:00,
2013-02-15 15:43:00,44.0,38.9,30.01,WSW,255,12.0,15.0,82,0.00,,,0.00,Wunderground v.1.15,2013-02-15 20:43:00,
2013-02-15 15:48:00,44.2,39.1,30.00,WSW,253,12.0,18.0,82,0.00,,,0.00,Wunderground v.1.15,2013-02-15 20:48:00,
2013-02-15 15:53:00,44.3,39.2,30.00,WSW,258,16.0,16.0,82,0.00,,,0.00,Wunderground v.1.15,2013-02-15 20:53:00,
2013-02-15 15:58:00,44.2,38.7,30.00,WSW,239,13.0,16.0,81,0.00,,,0.00,Wunderground v.1.15,2013-02-15 20:58:00,
2013-02-15 16:03:00,43.6,38.5,30.00,WSW,238,13.0,15.0,82,0.00,,,0.00,Wunderground v.1.15,2013-02-15 21:03:00,
2013-02-15 16:08:00,43.3,38.8,30.00,WSW,246,14.0,15.0,84,0.00,,,0.00,Wunderground v.1.15,2013-02-15 21:08:00,
2013-02-15 16:13:00,43.2,38.7,30.00,WSW,249,13.0,15.0,84,0.00,,,0.00,Wunderground v.1.15,2013-02-15 21:13:00,
2013-02-15 16:18:00,43.0,38.8,30.00,WSW,254,9.0,15.0,85,0.00,,,0.00,Wunderground v.1.15,2013-02-15 21:18:00,
2013-02-15 16:23:00,42.8,38.6,30.00,WSW,244,9.0,14.0,85,0.00,,,0.00,Wunderground v.1.15,2013-02-15 21:23:00,
2013-02-15 16:28:00,42.6,38.4,30.00,WSW,246,9.0,14.0,85,0.00,,,0.00,Wunderground v.1.15,2013-02-15 21:28:00,
2013-02-15 16:33:00,42.5,38.3,30.00,WSW,239,10.0,12.0,85,0.00,,,0.00,Wunderground v.1.15,2013-02-15 21:33:00,
2013-02-15 16:38:00,42.0,38.1,30.00,WSW,246,11.0,14.0,86,0.00,,,0.00,Wunderground v.1.15,2013-02-15 21:38:00,
2013-02-15 16:43:00,41.9,38.3,30.00,WSW,240,10.0,13.0,87,0.00,,,0.00,Wunderground v.1.15,2013-02-15 21:43:00,
2013-02-15 16:48:00,41.9,38.3,30.00,West,259,14.0,16.0,87,0.00,,,0.00,Wunderground v.1.15,2013-02-15 21:48:00,
2013-02-15 16:53:00,41.8,38.2,30.00,WSW,244,10.0,14.0,87,0.00,,,0.00,Wunderground v.1.15,2013-02-15 21:53:00,
2013-02-15 16:58:00,41.5,37.9,30.00,WSW,251,11.0,15.0,87,0.00,,,0.00,Wunderground v.1.15,2013-02-15 21:58:00,
2013-02-15 17:03:00,41.2,37.9,30.00,WSW,257,12.0,12.0,88,0.00,,,0.00,Wunderground v.1.15,2013-02-15 22:03:00,
2013-02-15 17:08:00,41.0,37.7,30.00,WSW,254,9.0,13.0,88,0.00,,,0.00,Wunderground v.1.15,2013-02-15 22:08:00,
2013-02-15 17:13:00,40.9,37.9,30.00,WSW,256,12.0,12.0,89,0.00,,,0.00,Wunderground v.1.15,2013-02-15 22:13:00,
2013-02-15 17:18:00,40.8,37.8,30.00,WSW,251,10.0,12.0,89,0.00,,,0.00,Wunderground v.1.15,2013-02-15 22:18:00,
2013-02-15 17:23:00,40.6,37.6,30.00,WSW,248,8.0,11.0,89,0.00,,,0.00,Wunderground v.1.15,2013-02-15 22:23:00,
2013-02-15 17:28:00,40.5,37.5,30.00,WSW,246,9.0,12.0,89,0.00,,,0.00,Wunderground v.1.15,2013-02-15 22:28:00,
2013-02-15 17:33:00,40.5,37.5,30.00,WSW,254,8.0,11.0,89,0.00,,,0.00,Wunderground v.1.15,2013-02-15 22:33:00,
2013-02-15 17:38:00,40.7,38.0,30.00,WSW,252,8.0,11.0,90,0.00,,,0.00,Wunderground v.1.15,2013-02-15 22:38:00,
2013-02-15 17:43:00,40.7,37.7,29.99,WSW,247,8.0,10.0,89,0.00,,,0.00,Wunderground v.1.15,2013-02-15 22:43:00,
2013-02-15 17:48:00,40.6,37.6,30.00,SW,230,11.0,11.0,89,0.00,,,0.00,Wunderground v.1.15,2013-02-15 22:48:00,
2013-02-15 17:53:00,39.8,36.8,30.00,SW,229,12.0,16.0,89,0.00,,,0.00,Wunderground v.1.15,2013-02-15 22:53:00,
2013-02-15 17:58:00,39.5,36.8,30.00,WSW,244,11.0,16.0,90,0.00,,,0.00,Wunderground v.1.15,2013-02-15 22:58:00,
2013-02-15 18:03:00,39.2,36.5,30.00,WSW,240,12.0,14.0,90,0.00,,,0.00,Wunderground v.1.15,2013-02-15 23:03:00,
2013-02-15 18:08:00,39.2,36.5,30.00,WSW,245,12.0,14.0,90,0.00,,,0.00,Wunderground v.1.15,2013-02-15 23:08:00,
2013-02-15 18:14:00,39.4,36.7,30.00,WSW,250,12.0,14.0,90,0.00,,,0.00,Wunderground v.1.15,2013-02-15 23:14:00,
2013-02-15 18:18:00,39.5,36.8,30.00,WSW,248,12.0,14.0,90,0.00,,,0.00,Wunderground v.1.15,2013-02-15 23:18:00,
2013-02-15 18:23:00,39.7,37.0,30.00,WSW,250,9.0,12.0,90,0.00,,,0.00,Wunderground v.1.15,2013-02-15 23:23:00,
2013-02-15 18:28:00,39.9,37.2,30.00,WSW,245,8.0,13.0,90,0.00,,,0.00,Wunderground v.1.15,2013-02-15 23:28:00,
2013-02-15 18:34:00,40.0,37.3,30.01,WSW,247,7.0,9.0,90,0.00,,,0.00,Wunderground v.1.15,2013-02-15 23:34:00,
2013-02-15 18:39:00,39.8,36.8,30.01,WSW,248,8.0,9.0,89,0.00,,,0.00,Wunderground v.1.15,2013-02-15 23:39:00,
2013-02-15 18:44:00,40.0,37.0,30.01,West,265,5.0,6.0,89,0.00,,,0.00,Wunderground v.1.15,2013-02-15 23:44:00,
2013-02-15 18:49:00,39.9,36.9,30.01,WSW,252,4.0,7.0,89,0.00,,,0.00,Wunderground v.1.15,2013-02-15 23:49:00,
2013-02-15 18:54:00,39.5,36.5,30.00,SW,229,4.0,6.0,89,0.00,,,0.00,Wunderground v.1.15,2013-02-15 23:54:00,
2013-02-15 18:59:00,39.2,36.5,30.00,WSW,237,5.0,7.0,90,0.00,,,0.00,Wunderground v.1.15,2013-02-15 23:59:00,
2013-02-15 19:04:00,38.9,36.2,30.00,WSW,242,5.0,7.0,90,0.00,,,0.00,Wunderground v.1.15,2013-02-16 00:04:00,
2013-02-15 19:09:00,38.8,36.1,30.00,WSW,238,5.0,8.0,90,0.00,,,0.00,Wunderground v.1.15,2013-02-16 00:09:00,
2013-02-15 19:14:00,38.8,36.4,30.01,WSW,249,7.0,8.0,91,0.00,,,0.00,Wunderground v.1.15,2013-02-16 00:14:00,
2013-02-15 19:19:00,38.8,36.4,30.00,WSW,242,5.0,8.0,91,0.00,,,0.00,Wunderground v.1.15,2013-02-16 00:19:00,
2013-02-15 19:24:00,38.8,36.4,30.00,WSW,248,6.0,7.0,91,0.00,,,0.00,Wunderground v.1.15,2013-02-16 00:24:00,
2013-02-15 19:29:00,38.9,36.5,30.00,WSW,250,6.0,8.0,91,0.00,,,0.00,Wunderground v.1.15,2013-02-16 00:29:00,
2013-02-15 19:34:00,39.0,36.9,30.00,WSW,247,7.0,9.0,92,0.00,,,0.00,Wunderground v.1.15,2013-02-16 00:34:00,
2013-02-15 19:39:00,39.0,36.9,30.01,WSW,255,7.0,10.0,92,0.00,,,0.00,Wunderground v.1.15,2013-02-16 00:39:00,
2013-02-15 19:44:00,38.9,36.8,30.01,West,259,7.0,9.0,92,0.00,,,0.00,Wunderground v.1.15,2013-02-16 00:44:00,
2013-02-15 19:49:00,38.7,36.6,30.00,West,259,6.0,9.0,92,0.00,,,0.00,Wunderground v.1.15,2013-02-16 00:49:00,
2013-02-15 19:54:00,38.8,36.7,30.00,WSW,248,7.0,9.0,92,0.00,,,0.00,Wunderground v.1.15,2013-02-16 00:54:00,
2013-02-15 19:59:00,38.7,36.6,30.00,WSW,254,7.0,9.0,92,0.00,,,0.00,Wunderground v.1.15,2013-02-16 00:59:00,
2013-02-15 20:04:00,38.8,36.9,30.00,WSW,258,6.0,10.0,93,0.00,,,0.00,Wunderground v.1.15,2013-02-16 01:04:00,
2013-02-15 20:09:00,38.6,36.5,30.00,West,263,7.0,10.0,92,0.00,,,0.00,Wunderground v.1.15,2013-02-16 01:09:00,
2013-02-15 20:14:00,38.6,36.8,30.00,WSW,253,7.0,9.0,93,0.00,,,0.00,Wunderground v.1.15,2013-02-16 01:14:00,
2013-02-15 20:19:00,38.7,36.9,30.00,WSW,254,7.0,9.0,93,0.00,,,0.00,Wunderground v.1.15,2013-02-16 01:19:00,
2013-02-15 20:24:00,38.6,36.8,30.00,WSW,255,7.0,9.0,93,0.00,,,0.00,Wunderground v.1.15,2013-02-16 01:24:00,
2013-02-15 20:29:00,38.6,36.8,30.00,WSW,257,7.0,9.0,93,0.00,,,0.00,Wunderground v.1.15,2013-02-16 01:29:00,
2013-02-15 20:34:00,38.6,36.8,30.00,West,259,8.0,10.0,93,0.00,,,0.00,Wunderground v.1.15,2013-02-16 01:34:00,
2013-02-15 20:39:00,38.6,36.8,30.00,WSW,257,9.0,11.0,93,0.00,,,0.00,Wunderground v.1.15,2013-02-16 01:39:00,
2013-02-15 20:44:00,38.6,37.0,30.00,WSW,254,10.0,11.0,94,0.00,,,0.00,Wunderground v.1.15,2013-02-16 01:44:00,
2013-02-15 20:49:00,38.8,36.9,30.00,WSW,254,8.0,11.0,93,0.00,,,0.00,Wunderground v.1.15,2013-02-16 01:49:00,
2013-02-15 20:54:00,39.0,37.4,30.00,WSW,253,9.0,11.0,94,0.00,,,0.00,Wunderground v.1.15,2013-02-16 01:54:00,
2013-02-15 20:59:00,39.2,37.6,30.00,WSW,255,6.0,11.0,94,0.00,,,0.00,Wunderground v.1.15,2013-02-16 01:59:00,
2013-02-15 21:04:00,39.2,37.6,30.00,WSW,252,8.0,10.0,94,0.00,,,0.00,Wunderground v.1.15,2013-02-16 02:04:00,
2013-02-15 21:09:00,39.2,37.6,30.00,WSW,240,8.0,10.0,94,0.00,,,0.00,Wunderground v.1.15,2013-02-16 02:09:00,
2013-02-15 21:14:00,39.1,37.2,30.00,West,259,8.0,8.0,93,0.00,,,0.00,Wunderground v.1.15,2013-02-16 02:14:00,
2013-02-15 21:19:00,39.1,37.2,30.00,WSW,242,5.0,8.0,93,0.00,,,0.00,Wunderground v.1.15,2013-02-16 02:19:00,
2013-02-15 21:24:00,39.0,37.1,30.00,WSW,248,7.0,8.0,93,0.00,,,0.00,Wunderground v.1.15,2013-02-16 02:24:00,
2013-02-15 21:29:00,39.1,37.2,30.00,WSW,246,6.0,8.0,93,0.00,,,0.00,Wunderground v.1.15,2013-02-16 02:29:00,
2013-02-15 21:34:00,39.0,37.1,30.00,WSW,247,6.0,7.0,93,0.00,,,0.00,Wunderground v.1.15,2013-02-16 02:34:00,
2013-02-15 21:39:00,39.0,37.1,30.00,WSW,241,6.0,8.0,93,0.00,,,0.00,Wunderground v.1.15,2013-02-16 02:39:00,
2013-02-15 21:44:00,39.1,37.2,30.00,WSW,238,4.0,8.0,93,0.00,,,0.00,Wunderground v.1.15,2013-02-16 02:44:00,
2013-02-15 21:49:00,39.1,37.2,30.00,SW,235,6.0,8.0,93,0.00,,,0.00,Wunderground v.1.15,2013-02-16 02:49:00,
2013-02-15 21:54:00,39.2,37.3,30.00,WSW,255,4.0,5.0,93,0.00,,,0.00,Wunderground v.1.15,2013-02-16 02:54:00,
2013-02-15 21:59:00,39.4,37.5,30.00,SW,234,3.0,6.0,93,0.00,,,0.00,Wunderground v.1.15,2013-02-16 02:59:00,
2013-02-15 22:04:00,39.5,37.6,30.00,West,267,3.0,5.0,93,0.00,,,0.00,Wunderground v.1.15,2013-02-16 03:04:00,
2013-02-15 22:09:00,39.6,37.7,30.00,WSW,252,4.0,6.0,93,0.00,,,0.00,Wunderground v.1.15,2013-02-16 03:09:00,
2013-02-15 22:14:00,39.8,37.9,30.00,SW,232,3.0,5.0,93,0.00,,,0.00,Wunderground v.1.15,2013-02-16 03:14:00,
2013-02-15 22:19:00,39.8,37.7,30.00,SW,225,4.0,5.0,92,0.00,,,0.00,Wunderground v.1.15,2013-02-16 03:19:00,
2013-02-15 22:24:00,39.9,37.8,30.00,SW,220,3.0,4.0,92,0.00,,,0.00,Wunderground v.1.15,2013-02-16 03:24:00,
2013-02-15 22:29:00,39.4,37.0,30.00,SSW,205,3.0,4.0,91,0.00,,,0.00,Wunderground v.1.15,2013-02-16 03:29:00,
2013-02-15 22:34:00,38.9,36.5,30.00,SW,217,3.0,4.0,91,0.00,,,0.00,Wunderground v.1.15,2013-02-16 03:34:00,
2013-02-15 22:39:00,39.0,36.9,29.99,SW,226,4.0,5.0,92,0.00,,,0.00,Wunderground v.1.15,2013-02-16 03:39:00,
2013-02-15 22:44:00,39.3,37.2,29.99,SW,232,3.0,5.0,92,0.00,,,0.00,Wunderground v.1.15,2013-02-16 03:44:00,
2013-02-15 22:49:00,39.4,37.5,29.99,SW,229,3.0,5.0,93,0.00,,,0.00,Wunderground v.1.15,2013-02-16 03:49:00,
2013-02-15 22:54:00,39.2,37.1,29.99,SW,225,3.0,4.0,92,0.00,,,0.00,Wunderground v.1.15,2013-02-16 03:54:00,
2013-02-15 22:59:00,38.9,36.8,29.99,SW,214,3.0,4.0,92,0.00,,,0.00,Wunderground v.1.15,2013-02-16 03:59:00,
2013-02-15 23:04:00,38.8,36.7,29.98,SW,227,3.0,4.0,92,0.00,,,0.00,Wunderground v.1.15,2013-02-16 04:04:00,
2013-02-15 23:09:00,38.8,36.9,29.99,SW,228,2.0,4.0,93,0.00,,,0.00,Wunderground v.1.15,2013-02-16 04:09:00,
2013-02-15 23:14:00,38.8,36.9,29.98,SW,228,2.0,3.0,93,0.00,,,0.00,Wunderground v.1.15,2013-02-16 04:14:00,
2013-02-15 23:19:00,38.8,36.9,29.99,SW,228,2.0,3.0,93,0.00,,,0.00,Wunderground v.1.15,2013-02-16 04:19:00,
2013-02-15 23:24:00,38.8,36.9,29.99,SW,215,2.0,3.0,93,0.00,,,0.00,Wunderground v.1.15,2013-02-16 04:24:00,
2013-02-15 23:29:00,38.1,35.7,29.99,SSW,204,2.0,3.0,91,0.00,,,0.00,Wunderground v.1.15,2013-02-16 04:29:00,
2013-02-15 23:35:00,38.0,36.2,29.99,SSW,204,1.0,2.0,93,0.00,,,0.00,Wunderground v.1.15,2013-02-16 04:35:00,
2013-02-15 23:39:00,37.4,35.3,29.99,SSW,204,2.0,2.0,92,0.00,,,0.00,Wunderground v.1.15,2013-02-16 04:39:00,
2013-02-15 23:44:00,37.1,35.3,29.99,SSW,204,3.0,3.0,93,0.00,,,0.00,Wunderground v.1.15,2013-02-16 04:44:00,
2013-02-15 23:50:00,37.4,35.6,29.99,SSW,204,1.0,3.0,93,0.00,,,0.00,Wunderground v.1.15,2013-02-16 04:50:00,
2013-02-15 23:54:00,37.4,35.6,29.99,SSW,204,1.0,2.0,93,0.00,,,0.00,Wunderground v.1.15,2013-02-16 04:54:00,